sensor_id;sensor_type;location;lat;lon;timestamp;pressure;altitude;pressure_sealevel;temperature;humidity
22389;BME280;11362;48.102;11.620;2023-02-13T00:00:08;97022.00;;;23.33;38.44
22389;BME280;11362;48.102;11.620;2023-02-13T00:02:34;97024.78;;;23.33;38.56
22389;BME280;11362;48.102;11.620;2023-02-13T00:04:59;97024.78;;;23.33;38.34
22389;BME280;11362;48.102;11.620;2023-02-13T00:07:24;97020.41;;;23.32;38.14
22389;BME280;11362;48.102;11.620;2023-02-13T00:09:49;97018.81;;;23.31;38.03
22389;BME280;11362;48.102;11.620;2023-02-13T00:12:15;97017.19;;;23.30;38.09
22389;BME280;11362;48.102;11.620;2023-02-13T00:14:40;97016.41;;;23.30;38.03
22389;BME280;11362;48.102;11.620;2023-02-13T00:17:06;97019.19;;;23.30;37.89
22389;BME280;11362;48.102;11.620;2023-02-13T00:19:32;97012.81;;;23.29;37.85
22389;BME280;11362;48.102;11.620;2023-02-13T00:21:57;97009.25;;;23.29;37.82
22389;BME280;11362;48.102;11.620;2023-02-13T00:24:22;97006.50;;;23.29;37.79
22389;BME280;11362;48.102;11.620;2023-02-13T00:26:48;97002.91;;;23.28;37.52
22389;BME280;11362;48.102;11.620;2023-02-13T00:29:13;97004.09;;;23.27;37.58
22389;BME280;11362;48.102;11.620;2023-02-13T00:31:38;97004.91;;;23.28;37.88
22389;BME280;11362;48.102;11.620;2023-02-13T00:34:04;96998.16;;;23.29;37.47
22389;BME280;11362;48.102;11.620;2023-02-13T00:36:29;97000.50;;;23.27;37.31
22389;BME280;11362;48.102;11.620;2023-02-13T00:38:54;97003.28;;;23.27;37.47
22389;BME280;11362;48.102;11.620;2023-02-13T00:41:20;96994.94;;;23.27;37.40
22389;BME280;11362;48.102;11.620;2023-02-13T00:43:46;96995.34;;;23.25;37.24
22389;BME280;11362;48.102;11.620;2023-02-13T00:46:12;96990.97;;;23.24;37.33
22389;BME280;11362;48.102;11.620;2023-02-13T00:48:38;96991.75;;;23.25;37.38
22389;BME280;11362;48.102;11.620;2023-02-13T00:51:03;96988.22;;;23.24;37.38
22389;BME280;11362;48.102;11.620;2023-02-13T00:53:29;96991.75;;;23.25;37.24
22389;BME280;11362;48.102;11.620;2023-02-13T00:55:55;96996.53;;;23.24;37.09
22389;BME280;11362;48.102;11.620;2023-02-13T00:58:20;96995.72;;;23.24;37.09
22389;BME280;11362;48.102;11.620;2023-02-13T01:00:46;96991.75;;;23.25;37.10
22389;BME280;11362;48.102;11.620;2023-02-13T01:03:16;96996.53;;;23.24;37.20
22389;BME280;11362;48.102;11.620;2023-02-13T01:05:42;96995.72;;;23.24;37.24
22389;BME280;11362;48.102;11.620;2023-02-13T01:08:09;96988.56;;;23.23;36.90
22389;BME280;11362;48.102;11.620;2023-02-13T01:10:36;96989.34;;;23.23;37.13
22389;BME280;11362;48.102;11.620;2023-02-13T01:13:02;96988.16;;;23.21;37.04
22389;BME280;11362;48.102;11.620;2023-02-13T01:15:27;96988.50;;;23.19;36.96
22389;BME280;11362;48.102;11.620;2023-02-13T01:17:53;96980.63;;;23.21;36.84
22389;BME280;11362;48.102;11.620;2023-02-13T01:20:19;96989.75;;;23.22;37.00
22389;BME280;11362;48.102;11.620;2023-02-13T01:22:44;96992.53;;;23.22;36.86
22389;BME280;11362;48.102;11.620;2023-02-13T01:25:10;96992.53;;;23.22;36.83
22389;BME280;11362;48.102;11.620;2023-02-13T01:27:35;96977.06;;;23.21;36.86
22389;BME280;11362;48.102;11.620;2023-02-13T01:30:01;96984.56;;;23.20;36.78
22389;BME280;11362;48.102;11.620;2023-02-13T01:32:26;96979.03;;;23.20;36.75
22389;BME280;11362;48.102;11.620;2023-02-13T01:34:51;96976.63;;;23.19;36.70
22389;BME280;11362;48.102;11.620;2023-02-13T01:37:16;96991.28;;;23.19;36.63
22389;BME280;11362;48.102;11.620;2023-02-13T01:39:42;96989.75;;;23.22;36.71
22389;BME280;11362;48.102;11.620;2023-02-13T01:42:23;96985.38;;;23.21;36.70
22389;BME280;11362;48.102;11.620;2023-02-13T01:44:52;96981.44;;;23.22;36.71
22389;BME280;11362;48.102;11.620;2023-02-13T01:50:05;96982.59;;;23.21;36.58
22389;BME280;11362;48.102;11.620;2023-02-13T01:52:32;96980.97;;;23.20;36.75
22389;BME280;11362;48.102;11.620;2023-02-13T01:54:58;96979.03;;;23.20;36.69
22389;BME280;11362;48.102;11.620;2023-02-13T01:57:25;96976.63;;;23.19;36.74
22389;BME280;11362;48.102;11.620;2023-02-13T02:00:04;96975.03;;;23.18;36.55
22389;BME280;11362;48.102;11.620;2023-02-13T02:02:33;96978.19;;;23.16;36.53
22389;BME280;11362;48.102;11.620;2023-02-13T02:05:02;96978.19;;;23.16;36.53
22389;BME280;11362;48.102;11.620;2023-02-13T02:07:30;96980.56;;;23.18;36.50
22389;BME280;11362;48.102;11.620;2023-02-13T02:09:59;96997.19;;;23.18;36.59
22389;BME280;11362;48.102;11.620;2023-02-13T02:12:57;96979.78;;;23.17;36.53
22389;BME280;11362;48.102;11.620;2023-02-13T02:15:25;96985.31;;;23.17;36.63
22389;BME280;11362;48.102;11.620;2023-02-13T02:17:50;96984.16;;;23.18;36.66
22389;BME280;11362;48.102;11.620;2023-02-13T02:23:33;96993.25;;;23.19;36.64
22389;BME280;11362;48.102;11.620;2023-02-13T02:29:25;96986.09;;;23.18;36.43
22389;BME280;11362;48.102;11.620;2023-02-13T02:32:16;96992.47;;;23.18;36.40
22389;BME280;11362;48.102;11.620;2023-02-13T02:35:12;96989.69;;;23.18;36.39
22389;BME280;11362;48.102;11.620;2023-02-13T02:40:56;96993.25;;;23.19;36.52
22389;BME280;11362;48.102;11.620;2023-02-13T02:48:50;97003.16;;;23.20;36.38
22389;BME280;11362;48.102;11.620;2023-02-13T02:51:23;96996.41;;;23.17;36.20
22389;BME280;11362;48.102;11.620;2023-02-13T02:54:49;96998.78;;;23.19;36.14
22389;BME280;11362;48.102;11.620;2023-02-13T02:57:02;96999.59;;;23.19;36.42
22389;BME280;11362;48.102;11.620;2023-02-13T02:59:31;96997.19;;;23.18;36.47
22389;BME280;11362;48.102;11.620;2023-02-13T03:01:57;96995.25;;;23.18;36.49
22389;BME280;11362;48.102;11.620;2023-02-13T03:04:27;96998.78;;;23.19;36.41
22389;BME280;11362;48.102;11.620;2023-02-13T03:07:01;96999.19;;;23.17;36.41
22389;BME280;11362;48.102;11.620;2023-02-13T03:09:31;96994.81;;;23.16;35.95
22389;BME280;11362;48.102;11.620;2023-02-13T03:12:00;97001.97;;;23.17;35.76
22389;BME280;11362;48.102;11.620;2023-02-13T03:14:27;97000.78;;;23.18;35.83
22389;BME280;11362;48.102;11.620;2023-02-13T03:16:54;96999.97;;;23.18;36.03
22389;BME280;11362;48.102;11.620;2023-02-13T03:25:04;96994.44;;;23.18;35.82
22389;BME280;11362;48.102;11.620;2023-02-13T03:35:46;96992.84;;;23.17;35.96
22389;BME280;11362;48.102;11.620;2023-02-13T03:38:21;97006.69;;;23.17;35.44
22389;BME280;11362;48.102;11.620;2023-02-13T03:40:51;96998.38;;;23.17;35.71
22389;BME280;11362;48.102;11.620;2023-02-13T03:43:21;97006.69;;;23.17;35.42
22389;BME280;11362;48.102;11.620;2023-02-13T03:45:47;97001.16;;;23.17;35.63
22389;BME280;11362;48.102;11.620;2023-02-13T03:48:16;97004.34;;;23.19;35.49
22389;BME280;11362;48.102;11.620;2023-02-13T03:50:44;97009.09;;;23.18;35.53
22389;BME280;11362;48.102;11.620;2023-02-13T03:53:10;97011.47;;;23.16;35.22
22389;BME280;11362;48.102;11.620;2023-02-13T03:55:41;97013.06;;;23.17;35.52
22389;BME280;11362;48.102;11.620;2023-02-13T03:58:14;97007.50;;;23.17;35.50
22389;BME280;11362;48.102;11.620;2023-02-13T04:00:46;97004.72;;;23.17;35.61
22389;BME280;11362;48.102;11.620;2023-02-13T04:03:16;97012.25;;;23.17;35.13
22389;BME280;11362;48.102;11.620;2023-02-13T04:05:49;97011.78;;;23.15;35.08
22389;BME280;11362;48.102;11.620;2023-02-13T04:08:16;97010.66;;;23.16;35.48
22389;BME280;11362;48.102;11.620;2023-02-13T04:10:49;97015.38;;;23.15;35.45
22389;BME280;11362;48.102;11.620;2023-02-13T04:13:26;97004.28;;;23.15;35.51
22389;BME280;11362;48.102;11.620;2023-02-13T04:16:02;97009.47;;;23.17;35.55
22389;BME280;11362;48.102;11.620;2023-02-13T04:18:30;97005.91;;;23.16;35.43
22389;BME280;11362;48.102;11.620;2023-02-13T04:21:00;97012.25;;;23.17;35.64
22389;BME280;11362;48.102;11.620;2023-02-13T04:23:26;97007.88;;;23.16;35.45
22389;BME280;11362;48.102;11.620;2023-02-13T04:25:53;97010.66;;;23.16;35.41
22389;BME280;11362;48.102;11.620;2023-02-13T04:28:20;97006.69;;;23.17;35.47
22389;BME280;11362;48.102;11.620;2023-02-13T04:30:45;97013.06;;;23.17;35.29
22389;BME280;11362;48.102;11.620;2023-02-13T04:33:11;97006.69;;;23.17;35.27
22389;BME280;11362;48.102;11.620;2023-02-13T04:35:36;97008.28;;;23.18;35.32
22389;BME280;11362;48.102;11.620;2023-02-13T04:38:02;97003.91;;;23.17;35.00
22389;BME280;11362;48.102;11.620;2023-02-13T04:40:27;97008.69;;;23.16;35.22
22389;BME280;11362;48.102;11.620;2023-02-13T04:42:52;97006.69;;;23.17;34.78
22389;BME280;11362;48.102;11.620;2023-02-13T04:45:17;97006.69;;;23.17;35.39
22389;BME280;11362;48.102;11.620;2023-02-13T04:47:49;97000.38;;;23.16;35.06
22389;BME280;11362;48.102;11.620;2023-02-13T04:50:15;97005.91;;;23.16;35.24
22389;BME280;11362;48.102;11.620;2023-02-13T04:52:40;96998.75;;;23.15;35.31
22389;BME280;11362;48.102;11.620;2023-02-13T04:55:05;97011.47;;;23.16;34.96
22389;BME280;11362;48.102;11.620;2023-02-13T04:57:31;97005.09;;;23.16;34.94
22389;BME280;11362;48.102;11.620;2023-02-13T04:59:56;97009.47;;;23.17;35.01
22389;BME280;11362;48.102;11.620;2023-02-13T05:02:21;97011.47;;;23.16;35.03
22389;BME280;11362;48.102;11.620;2023-02-13T05:04:46;97004.28;;;23.15;34.86
22389;BME280;11362;48.102;11.620;2023-02-13T05:07:12;96999.56;;;23.16;34.75
22389;BME280;11362;48.102;11.620;2023-02-13T05:09:37;97003.13;;;23.16;34.79
22389;BME280;11362;48.102;11.620;2023-02-13T05:12:02;97002.75;;;23.18;34.58
22389;BME280;11362;48.102;11.620;2023-02-13T05:14:28;97008.28;;;23.18;35.01
22389;BME280;11362;48.102;11.620;2023-02-13T05:16:53;97008.69;;;23.16;34.69
22389;BME280;11362;48.102;11.620;2023-02-13T05:19:18;97010.66;;;23.16;34.46
22389;BME280;11362;48.102;11.620;2023-02-13T05:21:44;97011.06;;;23.18;34.68
22389;BME280;11362;48.102;11.620;2023-02-13T05:24:09;97010.28;;;23.17;34.50
22389;BME280;11362;48.102;11.620;2023-02-13T05:26:34;97008.69;;;23.16;34.71
22389;BME280;11362;48.102;11.620;2023-02-13T05:28:59;97006.69;;;23.17;34.72
22389;BME280;11362;48.102;11.620;2023-02-13T05:31:25;97005.91;;;23.16;34.77
22389;BME280;11362;48.102;11.620;2023-02-13T05:33:50;97017.00;;;23.16;34.12
22389;BME280;11362;48.102;11.620;2023-02-13T05:36:15;97013.41;;;23.16;34.52
22389;BME280;11362;48.102;11.620;2023-02-13T05:38:41;97016.19;;;23.16;34.74
22389;BME280;11362;48.102;11.620;2023-02-13T05:41:06;97010.66;;;23.16;34.93
22389;BME280;11362;48.102;11.620;2023-02-13T05:43:31;97013.41;;;23.16;34.82
22389;BME280;11362;48.102;11.620;2023-02-13T05:46:04;97020.09;;;23.15;34.34
22389;BME280;11362;48.102;11.620;2023-02-13T05:48:30;97014.56;;;23.15;34.55
22389;BME280;11362;48.102;11.620;2023-02-13T05:50:55;97025.66;;;23.15;34.39
22389;BME280;11362;48.102;11.620;2023-02-13T05:53:20;97014.56;;;23.15;34.36
22389;BME280;11362;48.102;11.620;2023-02-13T05:55:46;97022.06;;;23.14;34.28
22389;BME280;11362;48.102;11.620;2023-02-13T05:58:11;97021.72;;;23.16;34.15
22389;BME280;11362;48.102;11.620;2023-02-13T06:00:36;97020.09;;;23.15;34.28
22389;BME280;11362;48.102;11.620;2023-02-13T06:03:02;97029.22;;;23.15;34.49
22389;BME280;11362;48.102;11.620;2023-02-13T06:05:27;97035.94;;;23.14;34.59
22389;BME280;11362;48.102;11.620;2023-02-13T06:07:52;97026.81;;;23.14;34.35
22389;BME280;11362;48.102;11.620;2023-02-13T06:10:18;97028.09;;;23.16;35.26
22389;BME280;11362;48.102;11.620;2023-02-13T06:12:43;97035.66;;;23.19;35.58
22389;BME280;11362;48.102;11.620;2023-02-13T06:15:08;97026.97;;;23.21;35.98
22389;BME280;11362;48.102;11.620;2023-02-13T06:17:34;97008.75;;;23.23;36.14
22389;BME280;11362;48.102;11.620;2023-02-13T06:19:59;97071.38;;;23.24;36.43
22389;BME280;11362;48.102;11.620;2023-02-13T06:22:24;97021.84;;;23.23;36.12
22389;BME280;11362;48.102;11.620;2023-02-13T06:24:49;97042.03;;;23.23;36.36
22389;BME280;11362;48.102;11.620;2023-02-13T06:27:15;97047.56;;;23.23;35.90
22389;BME280;11362;48.102;11.620;2023-02-13T06:29:40;97047.22;;;23.25;36.28
22389;BME280;11362;48.102;11.620;2023-02-13T06:32:05;97054.81;;;23.28;36.23
22389;BME280;11362;48.102;11.620;2023-02-13T06:34:31;97052.81;;;23.28;36.46
22389;BME280;11362;48.102;11.620;2023-02-13T06:36:56;97049.69;;;23.30;36.40
22389;BME280;11362;48.102;11.620;2023-02-13T06:39:21;97040.59;;;23.33;36.38
22389;BME280;11362;48.102;11.620;2023-02-13T06:41:46;97042.59;;;23.32;36.48
22389;BME280;11362;48.102;11.620;2023-02-13T06:44:12;97045.72;;;23.31;36.65
22389;BME280;11362;48.102;11.620;2023-02-13T06:46:37;97050.53;;;23.33;36.48
22389;BME280;11362;48.102;11.620;2023-02-13T06:49:02;97048.91;;;23.33;36.67
22389;BME280;11362;48.102;11.620;2023-02-13T06:51:28;97054.09;;;23.34;36.85
22389;BME280;11362;48.102;11.620;2023-02-13T06:53:53;97028.34;;;23.33;36.97
22389;BME280;11362;48.102;11.620;2023-02-13T06:56:18;97025.13;;;23.32;37.07
22389;BME280;11362;48.102;11.620;2023-02-13T06:58:43;97025.13;;;23.32;37.21
22389;BME280;11362;48.102;11.620;2023-02-13T07:01:09;97027.50;;;23.30;36.91
22389;BME280;11362;48.102;11.620;2023-02-13T07:03:34;97031.44;;;23.29;36.73
22389;BME280;11362;48.102;11.620;2023-02-13T07:05:59;97047.63;;;23.27;36.78
22389;BME280;11362;48.102;11.620;2023-02-13T07:08:25;97038.16;;;23.28;36.59
22389;BME280;11362;48.102;11.620;2023-02-13T07:10:50;97060.34;;;23.28;36.75
22389;BME280;11362;48.102;11.620;2023-02-13T07:13:15;97055.94;;;23.27;36.60
22389;BME280;11362;48.102;11.620;2023-02-13T07:15:40;97059.91;;;23.26;36.61
22389;BME280;11362;48.102;11.620;2023-02-13T07:18:06;97101.13;;;23.27;36.67
22389;BME280;11362;48.102;11.620;2023-02-13T07:20:32;97083.69;;;23.27;36.50
22389;BME280;11362;48.102;11.620;2023-02-13T07:22:58;97092.81;;;23.27;36.40
22389;BME280;11362;48.102;11.620;2023-02-13T07:25:23;97097.53;;;23.27;36.52
22389;BME280;11362;48.102;11.620;2023-02-13T07:27:48;97092.38;;;23.25;36.66
22389;BME280;11362;48.102;11.620;2023-02-13T07:30:14;97094.00;;;23.26;36.64
22389;BME280;11362;48.102;11.620;2023-02-13T07:32:39;97097.94;;;23.25;36.75
22389;BME280;11362;48.102;11.620;2023-02-13T07:35:05;97108.22;;;23.25;36.69
22389;BME280;11362;48.102;11.620;2023-02-13T07:37:30;97095.16;;;23.25;36.91
22389;BME280;11362;48.102;11.620;2023-02-13T07:39:55;97103.84;;;23.24;36.73
22389;BME280;11362;48.102;11.620;2023-02-13T07:42:21;97101.88;;;23.24;36.51
22389;BME280;11362;48.102;11.620;2023-02-13T07:44:46;97106.63;;;23.24;36.57
22389;BME280;11362;48.102;11.620;2023-02-13T07:47:11;97110.56;;;23.23;36.43
22389;BME280;11362;48.102;11.620;2023-02-13T07:49:37;97109.75;;;23.22;36.63
22389;BME280;11362;48.102;11.620;2023-02-13T07:52:03;97118.06;;;23.22;36.59
22389;BME280;11362;48.102;11.620;2023-02-13T07:54:29;97115.28;;;23.22;36.81
22389;BME280;11362;48.102;11.620;2023-02-13T07:56:55;97114.50;;;23.22;37.05
22389;BME280;11362;48.102;11.620;2023-02-13T07:59:20;97122.84;;;23.22;36.86
22389;BME280;11362;48.102;11.620;2023-02-13T08:01:45;97122.84;;;23.22;36.97
22389;BME280;11362;48.102;11.620;2023-02-13T08:04:11;97124.44;;;23.23;37.10
22389;BME280;11362;48.102;11.620;2023-02-13T08:06:40;97132.75;;;23.23;36.43
22389;BME280;11362;48.102;11.620;2023-02-13T08:09:05;97124.00;;;23.21;36.80
22389;BME280;11362;48.102;11.620;2023-02-13T08:11:31;97133.91;;;23.22;36.66
22389;BME280;11362;48.102;11.620;2023-02-13T08:13:57;97133.47;;;23.20;36.51
22389;BME280;11362;48.102;11.620;2023-02-13T08:16:22;97137.88;;;23.21;36.51
22389;BME280;11362;48.102;11.620;2023-02-13T08:18:48;97125.97;;;23.20;36.49
22389;BME280;11362;48.102;11.620;2023-02-13T08:21:13;97131.88;;;23.19;36.22
22389;BME280;11362;48.102;11.620;2023-02-13T08:23:38;97129.09;;;23.19;36.14
22389;BME280;11362;48.102;11.620;2023-02-13T08:26:04;97131.88;;;23.19;36.34
22389;BME280;11362;48.102;11.620;2023-02-13T08:28:29;97133.06;;;23.18;36.36
22389;BME280;11362;48.102;11.620;2023-02-13T08:30:54;97134.66;;;23.19;36.16
22389;BME280;11362;48.102;11.620;2023-02-13T08:33:19;97119.19;;;23.18;36.18
22389;BME280;11362;48.102;11.620;2023-02-13T08:35:45;97119.19;;;23.18;35.94
22389;BME280;11362;48.102;11.620;2023-02-13T08:38:10;97121.97;;;23.18;36.08
22389;BME280;11362;48.102;11.620;2023-02-13T08:40:35;97119.19;;;23.18;35.91
22389;BME280;11362;48.102;11.620;2023-02-13T08:43:02;97110.09;;;23.17;35.68
22389;BME280;11362;48.102;11.620;2023-02-13T08:45:28;97117.59;;;23.17;35.45
22389;BME280;11362;48.102;11.620;2023-02-13T08:47:57;97118.75;;;23.16;35.12
22389;BME280;11362;48.102;11.620;2023-02-13T08:50:22;97121.53;;;23.16;35.19
22389;BME280;11362;48.102;11.620;2023-02-13T08:52:47;97127.91;;;23.16;35.11
22389;BME280;11362;48.102;11.620;2023-02-13T08:55:13;97126.25;;;23.15;35.26
22389;BME280;11362;48.102;11.620;2023-02-13T08:57:38;97125.44;;;23.15;35.41
22389;BME280;11362;48.102;11.620;2023-02-13T09:00:04;97131.81;;;23.15;35.21
22389;BME280;11362;48.102;11.620;2023-02-13T09:02:29;97125.44;;;23.15;35.02
22389;BME280;11362;48.102;11.620;2023-02-13T09:04:55;97130.19;;;23.14;35.12
22389;BME280;11362;48.102;11.620;2023-02-13T09:07:20;97123.84;;;23.14;35.08
22389;BME280;11362;48.102;11.620;2023-02-13T09:09:45;97138.88;;;23.13;35.23
22389;BME280;11362;48.102;11.620;2023-02-13T09:12:10;97129.41;;;23.14;35.55
22389;BME280;11362;48.102;11.620;2023-02-13T09:14:36;97140.50;;;23.14;35.18
22389;BME280;11362;48.102;11.620;2023-02-13T09:17:01;97128.59;;;23.13;35.56
22389;BME280;11362;48.102;11.620;2023-02-13T09:19:26;97138.88;;;23.13;35.34
22389;BME280;11362;48.102;11.620;2023-02-13T09:21:51;97140.50;;;23.14;35.09
22389;BME280;11362;48.102;11.620;2023-02-13T09:24:17;97146.03;;;23.14;35.07
22389;BME280;11362;48.102;11.620;2023-02-13T09:26:42;97138.88;;;23.13;34.97
22389;BME280;11362;48.102;11.620;2023-02-13T09:29:07;97144.44;;;23.13;34.69
22389;BME280;11362;48.102;11.620;2023-02-13T09:31:33;97140.03;;;23.12;34.78
22389;BME280;11362;48.102;11.620;2023-02-13T09:33:58;97135.66;;;23.11;34.69
22389;BME280;11362;48.102;11.620;2023-02-13T09:36:23;97139.66;;;23.13;34.92
22389;BME280;11362;48.102;11.620;2023-02-13T09:38:55;97134.22;;;23.17;35.44
22389;BME280;11362;48.102;11.620;2023-02-13T09:41:27;97131.88;;;23.19;35.23
22389;BME280;11362;48.102;11.620;2023-02-13T09:46:36;97136.63;;;23.18;35.63
22389;BME280;11362;48.102;11.620;2023-02-13T09:49:07;97137.47;;;23.22;35.71
22389;BME280;11362;48.102;11.620;2023-02-13T09:51:34;97140.69;;;23.24;35.75
22389;BME280;11362;48.102;11.620;2023-02-13T09:54:05;97137.13;;;23.24;36.03
22389;BME280;11362;48.102;11.620;2023-02-13T10:02:07;97139.81;;;23.20;35.63
22389;BME280;11362;48.102;11.620;2023-02-13T10:05:09;97150.09;;;23.20;35.68
22389;BME280;11362;48.102;11.620;2023-02-13T10:11:01;97144.13;;;23.18;35.38
22389;BME280;11362;48.102;11.620;2023-02-13T10:16:34;97144.13;;;23.18;35.54
22389;BME280;11362;48.102;11.620;2023-02-13T10:19:23;97141.38;;;23.18;35.53
22389;BME280;11362;48.102;11.620;2023-02-13T10:22:03;97144.13;;;23.18;35.55
22389;BME280;11362;48.102;11.620;2023-02-13T10:24:39;97146.91;;;23.18;35.60
22389;BME280;11362;48.102;11.620;2023-02-13T10:27:21;97138.59;;;23.18;35.37
22389;BME280;11362;48.102;11.620;2023-02-13T10:33:10;97138.97;;;23.16;35.25
22389;BME280;11362;48.102;11.620;2023-02-13T10:35:31;97133.44;;;23.16;35.13
22389;BME280;11362;48.102;11.620;2023-02-13T10:37:59;97127.06;;;23.16;35.22
22389;BME280;11362;48.102;11.620;2023-02-13T10:40:31;97130.19;;;23.14;35.06
22389;BME280;11362;48.102;11.620;2023-02-13T10:43:17;97164.25;;;23.15;35.05
22389;BME280;11362;48.102;11.620;2023-02-13T10:46:00;97159.53;;;23.15;35.12
22389;BME280;11362;48.102;11.620;2023-02-13T10:48:58;97153.19;;;23.15;35.00
22389;BME280;11362;48.102;11.620;2023-02-13T10:51:33;97142.09;;;23.15;35.07
22389;BME280;11362;48.102;11.620;2023-02-13T10:55:01;97148.44;;;23.15;35.11
22389;BME280;11362;48.102;11.620;2023-02-13T10:57:09;97148.81;;;23.14;35.21
22389;BME280;11362;48.102;11.620;2023-02-13T10:59:49;97140.13;;;23.15;35.03
22389;BME280;11362;48.102;11.620;2023-02-13T11:02:22;97142.09;;;23.15;35.20
22389;BME280;11362;48.102;11.620;2023-02-13T11:04:49;97137.34;;;23.15;35.09
22389;BME280;11362;48.102;11.620;2023-02-13T11:07:22;97137.34;;;23.15;35.40
22389;BME280;11362;48.102;11.620;2023-02-13T11:09:49;97134.59;;;23.15;35.40
22389;BME280;11362;48.102;11.620;2023-02-13T11:12:31;97133.78;;;23.15;35.26
22389;BME280;11362;48.102;11.620;2023-02-13T11:15:00;97137.34;;;23.15;35.13
22389;BME280;11362;48.102;11.620;2023-02-13T11:17:34;97126.25;;;23.15;35.29
22389;BME280;11362;48.102;11.620;2023-02-13T11:20:20;97132.63;;;23.16;34.92
22389;BME280;11362;48.102;11.620;2023-02-13T11:22:47;97130.19;;;23.14;35.23
22389;BME280;11362;48.102;11.620;2023-02-13T11:25:35;97132.63;;;23.16;34.98
22389;BME280;11362;48.102;11.620;2023-02-13T11:28:12;97121.53;;;23.16;35.31
22389;BME280;11362;48.102;11.620;2023-02-13T11:30:39;97122.69;;;23.15;35.15
22389;BME280;11362;48.102;11.620;2023-02-13T11:33:20;97119.91;;;23.15;35.42
22389;BME280;11362;48.102;11.620;2023-02-13T11:35:45;97121.88;;;23.14;35.06
22389;BME280;11362;48.102;11.620;2023-02-13T11:40:41;97125.44;;;23.15;35.20
22389;BME280;11362;48.102;11.620;2023-02-13T11:43:12;97126.25;;;23.15;35.13
22389;BME280;11362;48.102;11.620;2023-02-13T11:45:42;97127.06;;;23.16;35.78
22389;BME280;11362;48.102;11.620;2023-02-13T11:48:08;97121.88;;;23.14;35.16
22389;BME280;11362;48.102;11.620;2023-02-13T11:50:50;97124.63;;;23.14;35.16
22389;BME280;11362;48.102;11.620;2023-02-13T11:53:20;97130.19;;;23.14;35.17
22389;BME280;11362;48.102;11.620;2023-02-13T11:56:07;97106.41;;;23.13;35.07
22389;BME280;11362;48.102;11.620;2023-02-13T11:58:35;97079.03;;;23.12;34.57
22389;BME280;11362;48.102;11.620;2023-02-13T12:01:26;97081.03;;;23.11;34.29
22389;BME280;11362;48.102;11.620;2023-02-13T12:06:29;97074.69;;;23.11;34.57
22389;BME280;11362;48.102;11.620;2023-02-13T12:08:54;97072.28;;;23.09;34.40
22389;BME280;11362;48.102;11.620;2023-02-13T12:13:57;97074.69;;;23.11;34.10
22389;BME280;11362;48.102;11.620;2023-02-13T12:16:30;97088.53;;;23.11;34.45
22389;BME280;11362;48.102;11.620;2023-02-13T12:18:59;97094.06;;;23.11;34.63
22389;BME280;11362;48.102;11.620;2023-02-13T12:21:45;97088.53;;;23.11;34.53
22389;BME280;11362;48.102;11.620;2023-02-13T12:27:28;97085.75;;;23.11;34.35
22389;BME280;11362;48.102;11.620;2023-02-13T12:33:24;97081.03;;;23.11;34.61
22389;BME280;11362;48.102;11.620;2023-02-13T12:39:36;97077.91;;;23.13;34.39
22389;BME280;11362;48.102;11.620;2023-02-13T12:44:34;97034.28;;;23.10;34.55
22389;BME280;11362;48.102;11.620;2023-02-13T12:47:24;97032.72;;;23.12;34.17
22389;BME280;11362;48.102;11.620;2023-02-13T12:55:47;97031.19;;;23.15;34.91
22389;BME280;11362;48.102;11.620;2023-02-13T13:01:04;97043.91;;;23.16;35.04
22389;BME280;11362;48.102;11.620;2023-02-13T13:11:44;97048.69;;;23.19;35.04
22389;BME280;11362;48.102;11.620;2023-02-13T13:14:21;97053.06;;;23.20;35.20
22389;BME280;11362;48.102;11.620;2023-02-13T13:20:21;97051.91;;;23.21;34.98
22389;BME280;11362;48.102;11.620;2023-02-13T13:22:50;97056.28;;;23.22;34.69
22389;BME280;11362;48.102;11.620;2023-02-13T13:25:24;97059.84;;;23.22;34.73
22389;BME280;11362;48.102;11.620;2023-02-13T13:28:15;97048.75;;;23.22;34.95
22389;BME280;11362;48.102;11.620;2023-02-13T13:30:42;97053.53;;;23.22;34.70
22389;BME280;11362;48.102;11.620;2023-02-13T13:33:15;97055.13;;;23.23;34.99
22389;BME280;11362;48.102;11.620;2023-02-13T13:38:41;97054.75;;;23.24;34.87
22389;BME280;11362;48.102;11.620;2023-02-13T13:41:37;97058.31;;;23.25;34.78
22389;BME280;11362;48.102;11.620;2023-02-13T13:47:01;97058.31;;;23.25;34.41
22389;BME280;11362;48.102;11.620;2023-02-13T13:52:28;97058.31;;;23.25;34.90
22389;BME280;11362;48.102;11.620;2023-02-13T13:54:55;97059.91;;;23.26;34.80
22389;BME280;11362;48.102;11.620;2023-02-13T14:07:24;97052.41;;;23.26;34.53
22389;BME280;11362;48.102;11.620;2023-02-13T14:09:49;97055.16;;;23.26;34.60
22389;BME280;11362;48.102;11.620;2023-02-13T14:14:49;97041.66;;;23.25;34.83
22389;BME280;11362;48.102;11.620;2023-02-13T14:17:15;97050.81;;;23.25;34.71
22389;BME280;11362;48.102;11.620;2023-02-13T14:20:01;97052.75;;;23.25;34.68
22389;BME280;11362;48.102;11.620;2023-02-13T14:22:37;97042.47;;;23.25;34.65
22389;BME280;11362;48.102;11.620;2023-02-13T14:25:05;97046.03;;;23.26;34.66
22389;BME280;11362;48.102;11.620;2023-02-13T14:27:33;97049.63;;;23.26;34.26
22389;BME280;11362;48.102;11.620;2023-02-13T14:30:00;97045.25;;;23.25;34.76
22389;BME280;11362;48.102;11.620;2023-02-13T14:32:38;97049.63;;;23.26;34.91
22389;BME280;11362;48.102;11.620;2023-02-13T14:35:15;97051.59;;;23.26;34.47
22389;BME280;11362;48.102;11.620;2023-02-13T14:37:56;97059.13;;;23.25;34.57
22389;BME280;11362;48.102;11.620;2023-02-13T14:42:57;97017.88;;;23.24;34.87
22389;BME280;11362;48.102;11.620;2023-02-13T14:45:28;97011.53;;;23.23;34.35
22389;BME280;11362;48.102;11.620;2023-02-13T14:47:56;97015.47;;;23.22;34.67
22389;BME280;11362;48.102;11.620;2023-02-13T14:50:28;97038.47;;;23.23;34.63
22389;BME280;11362;48.102;11.620;2023-02-13T14:52:58;97044.81;;;23.23;34.87